sensor_id;sensor_type;location;lat;lon;timestamp;pressure;altitude;pressure_sealevel;temperature;humidity
65997;BME280;52765;52.258;21.052;2023-06-04T00:00:18;101354.44;;;12.26;48.63
65997;BME280;52765;52.258;21.052;2023-06-04T00:02:44;101354.16;;;12.19;48.92
65997;BME280;52765;52.258;21.052;2023-06-04T00:05:09;101354.03;;;12.11;48.86
65997;BME280;52765;52.258;21.052;2023-06-04T00:07:35;101336.53;;;12.05;49.28
65997;BME280;52765;52.258;21.052;2023-06-04T00:10:00;101339.25;;;12.05;49.20
65997;BME280;52765;52.258;21.052;2023-06-04T00:12:26;101345.06;;;12.00;49.45
65997;BME280;52765;52.258;21.052;2023-06-04T00:14:52;101345.38;;;11.97;49.69
65997;BME280;52765;52.258;21.052;2023-06-04T00:17:17;101332.66;;;11.88;49.84
65997;BME280;52765;52.258;21.052;2023-06-04T00:19:43;101331.81;;;11.88;50.19
65997;BME280;52765;52.258;21.052;2023-06-04T00:22:08;101343.59;;;11.87;50.25
65997;BME280;52765;52.258;21.052;2023-06-04T00:24:36;101342.34;;;11.81;50.27
65997;BME280;52765;52.258;21.052;2023-06-04T00:27:02;101338.06;;;11.78;50.23
65997;BME280;52765;52.258;21.052;2023-06-04T00:29:28;101346.56;;;11.74;50.62
65997;BME280;52765;52.258;21.052;2023-06-04T00:31:53;101338.63;;;11.72;50.58
65997;BME280;52765;52.258;21.052;2023-06-04T00:34:19;101340.88;;;11.67;51.01
65997;BME280;52765;52.258;21.052;2023-06-04T00:36:44;101345.84;;;11.62;51.16
65997;BME280;52765;52.258;21.052;2023-06-04T00:39:10;101338.75;;;11.61;51.04
65997;BME280;52765;52.258;21.052;2023-06-04T00:41:35;101340.16;;;11.55;51.29
65997;BME280;52765;52.258;21.052;2023-06-04T00:44:01;101336.88;;;11.52;51.33
65997;BME280;52765;52.258;21.052;2023-06-04T00:46:28;101335.16;;;11.51;51.40
65997;BME280;52765;52.258;21.052;2023-06-04T00:48:54;101338.88;;;11.50;51.24
65997;BME280;52765;52.258;21.052;2023-06-04T00:51:21;101330.47;;;11.43;51.59
65997;BME280;52765;52.258;21.052;2023-06-04T00:53:49;101339.28;;;11.45;51.71
65997;BME280;52765;52.258;21.052;2023-06-04T00:56:15;101342.13;;;11.43;52.00
65997;BME280;52765;52.258;21.052;2023-06-04T00:58:41;101327.22;;;11.39;51.77
65997;BME280;52765;52.258;21.052;2023-06-04T01:01:18;101333.19;;;11.43;52.21
65997;BME280;52765;52.258;21.052;2023-06-04T01:03:49;101328.06;;;11.40;52.41
65997;BME280;52765;52.258;21.052;2023-06-04T01:09:05;101335.00;;;11.33;52.86
65997;BME280;52765;52.258;21.052;2023-06-04T01:11:35;101329.59;;;11.33;52.56
65997;BME280;52765;52.258;21.052;2023-06-04T01:14:02;101339.66;;;11.30;53.01
65997;BME280;52765;52.258;21.052;2023-06-04T01:16:30;101344.34;;;11.28;52.95
65997;BME280;52765;52.258;21.052;2023-06-04T01:19:01;101331.25;;;11.24;52.39
65997;BME280;52765;52.258;21.052;2023-06-04T01:21:29;101328.16;;;11.28;52.09
65997;BME280;52765;52.258;21.052;2023-06-04T01:23:57;101330.72;;;11.30;51.80
65997;BME280;52765;52.258;21.052;2023-06-04T01:26:30;101326.47;;;11.27;51.82
65997;BME280;52765;52.258;21.052;2023-06-04T01:28:57;101328.44;;;11.25;51.77
65997;BME280;52765;52.258;21.052;2023-06-04T01:31:24;101336.81;;;11.32;51.56
65997;BME280;52765;52.258;21.052;2023-06-04T01:33:57;101328.59;;;11.34;51.93
65997;BME280;52765;52.258;21.052;2023-06-04T01:36:23;101327.19;;;11.29;51.60
65997;BME280;52765;52.258;21.052;2023-06-04T01:38:51;101325.59;;;11.27;51.26
65997;BME280;52765;52.258;21.052;2023-06-04T01:41:17;101334.41;;;11.29;50.98
65997;BME280;52765;52.258;21.052;2023-06-04T01:43:43;101338.94;;;11.28;50.73
65997;BME280;52765;52.258;21.052;2023-06-04T01:46:08;101331.56;;;11.30;50.14
65997;BME280;52765;52.258;21.052;2023-06-04T01:48:34;101332.44;;;11.31;50.24
65997;BME280;52765;52.258;21.052;2023-06-04T01:51:00;101327.91;;;11.32;50.28
65997;BME280;52765;52.258;21.052;2023-06-04T01:53:26;101329.75;;;11.31;50.12
65997;BME280;52765;52.258;21.052;2023-06-04T01:55:51;101328.03;;;11.30;50.08
65997;BME280;52765;52.258;21.052;2023-06-04T01:58:18;101327.19;;;11.29;50.42
65997;BME280;52765;52.258;21.052;2023-06-04T02:00:49;101331.56;;;11.30;50.73
65997;BME280;52765;52.258;21.052;2023-06-04T02:03:15;101326.00;;;11.22;51.19
65997;BME280;52765;52.258;21.052;2023-06-04T02:05:40;101320.31;;;11.16;51.36
65997;BME280;52765;52.258;21.052;2023-06-04T02:08:06;101324.28;;;11.11;51.95
65997;BME280;52765;52.258;21.052;2023-06-04T02:10:32;101324.81;;;11.05;52.17
65997;BME280;52765;52.258;21.052;2023-06-04T02:13:01;101323.41;;;11.01;52.79
65997;BME280;52765;52.258;21.052;2023-06-04T02:15:31;101331.88;;;10.97;52.81
65997;BME280;52765;52.258;21.052;2023-06-04T02:17:58;101324.91;;;10.94;53.60
65997;BME280;52765;52.258;21.052;2023-06-04T02:20:28;101317.97;;;10.91;53.54
65997;BME280;52765;52.258;21.052;2023-06-04T02:22:55;101319.06;;;10.89;53.36
65997;BME280;52765;52.258;21.052;2023-06-04T02:25:21;101315.81;;;10.85;53.25
65997;BME280;52765;52.258;21.052;2023-06-04T02:27:47;101320.63;;;10.82;53.76
65997;BME280;52765;52.258;21.052;2023-06-04T02:30:13;101332.38;;;10.81;53.41
65997;BME280;52765;52.258;21.052;2023-06-04T02:32:38;101325.75;;;10.85;53.83
65997;BME280;52765;52.258;21.052;2023-06-04T02:35:04;101326.59;;;10.85;53.42
65997;BME280;52765;52.258;21.052;2023-06-04T02:37:30;101328.56;;;10.83;53.55
65997;BME280;52765;52.258;21.052;2023-06-04T02:39:55;101326.84;;;10.82;53.79
65997;BME280;52765;52.258;21.052;2023-06-04T02:42:21;101334.81;;;10.84;53.61
65997;BME280;52765;52.258;21.052;2023-06-04T02:44:46;101324.91;;;10.84;53.07
65997;BME280;52765;52.258;21.052;2023-06-04T02:47:12;101322.19;;;10.84;52.83
65997;BME280;52765;52.258;21.052;2023-06-04T02:49:37;101328.84;;;10.80;53.09
65997;BME280;52765;52.258;21.052;2023-06-04T02:52:03;101335.75;;;10.73;53.20
65997;BME280;52765;52.258;21.052;2023-06-04T02:54:29;101322.09;;;10.65;53.23
65997;BME280;52765;52.258;21.052;2023-06-04T02:56:54;101329.72;;;10.60;53.26
65997;BME280;52765;52.258;21.052;2023-06-04T02:59:21;101327.88;;;10.60;53.52
65997;BME280;52765;52.258;21.052;2023-06-04T03:01:46;101325.31;;;10.59;53.54
65997;BME280;52765;52.258;21.052;2023-06-04T03:04:12;101320.47;;;10.52;53.73
65997;BME280;52765;52.258;21.052;2023-06-04T03:06:40;101334.22;;;10.49;53.65
65997;BME280;52765;52.258;21.052;2023-06-04T03:09:10;101325.38;;;10.47;54.03
65997;BME280;52765;52.258;21.052;2023-06-04T03:11:36;101327.09;;;10.48;53.76
65997;BME280;52765;52.258;21.052;2023-06-04T03:14:02;101327.44;;;10.55;53.77
65997;BME280;52765;52.258;21.052;2023-06-04T03:16:27;101331.28;;;10.62;54.13
65997;BME280;52765;52.258;21.052;2023-06-04T03:18:53;101328.06;;;10.68;54.47
65997;BME280;52765;52.258;21.052;2023-06-04T03:21:18;101321.84;;;10.68;54.61
65997;BME280;52765;52.258;21.052;2023-06-04T03:23:44;101329.09;;;10.77;54.20
65997;BME280;52765;52.258;21.052;2023-06-04T03:26:09;101332.25;;;10.82;54.04
65997;BME280;52765;52.258;21.052;2023-06-04T03:28:38;101331.84;;;10.87;54.47
65997;BME280;52765;52.258;21.052;2023-06-04T03:31:04;101330.31;;;10.94;54.62
65997;BME280;52765;52.258;21.052;2023-06-04T03:33:30;101324.19;;;10.92;54.34
65997;BME280;52765;52.258;21.052;2023-06-04T03:35:55;101337.16;;;10.98;54.30
65997;BME280;52765;52.258;21.052;2023-06-04T03:38:27;101333.19;;;11.02;54.35
65997;BME280;52765;52.258;21.052;2023-06-04T03:40:52;101325.25;;;11.01;54.04
65997;BME280;52765;52.258;21.052;2023-06-04T03:43:19;101328.25;;;11.07;53.65
65997;BME280;52765;52.258;21.052;2023-06-04T03:45:45;101335.06;;;11.11;54.14
65997;BME280;52765;52.258;21.052;2023-06-04T03:48:10;101328.69;;;11.13;54.09
65997;BME280;52765;52.258;21.052;2023-06-04T03:50:36;101332.09;;;11.15;54.19
65997;BME280;52765;52.258;21.052;2023-06-04T03:53:01;101331.69;;;11.19;54.14
65997;BME280;52765;52.258;21.052;2023-06-04T03:55:30;101329.13;;;11.18;53.95
65997;BME280;52765;52.258;21.052;2023-06-04T03:57:58;101337.66;;;11.23;54.29
65997;BME280;52765;52.258;21.052;2023-06-04T04:00:23;101334.09;;;11.22;54.00
65997;BME280;52765;52.258;21.052;2023-06-04T04:02:49;101336.09;;;11.20;54.49
65997;BME280;52765;52.258;21.052;2023-06-04T04:05:15;101334.25;;;11.21;54.25
65997;BME280;52765;52.258;21.052;2023-06-04T04:07:41;101329.41;;;11.15;54.23
65997;BME280;52765;52.258;21.052;2023-06-04T04:10:07;101329.28;;;11.16;54.42
65997;BME280;52765;52.258;21.052;2023-06-04T04:12:33;101332.53;;;11.20;54.79
65997;BME280;52765;52.258;21.052;2023-06-04T04:14:58;101336.53;;;11.25;54.53
65997;BME280;52765;52.258;21.052;2023-06-04T04:17:25;101333.56;;;11.28;54.69
65997;BME280;52765;52.258;21.052;2023-06-04T04:19:51;101326.78;;;11.34;54.74
65997;BME280;52765;52.258;21.052;2023-06-04T04:22:16;101329.78;;;11.41;54.72
65997;BME280;52765;52.258;21.052;2023-06-04T04:24:43;101327.66;;;11.44;54.35
65997;BME280;52765;52.258;21.052;2023-06-04T04:27:09;101334.31;;;11.50;54.06
65997;BME280;52765;52.258;21.052;2023-06-04T04:29:41;101332.75;;;11.57;53.72
65997;BME280;52765;52.258;21.052;2023-06-04T04:32:07;101327.81;;;11.62;53.34
65997;BME280;52765;52.258;21.052;2023-06-04T04:34:37;101325.69;;;11.66;53.47
65997;BME280;52765;52.258;21.052;2023-06-04T04:37:05;101335.06;;;11.72;53.43
65997;BME280;52765;52.258;21.052;2023-06-04T04:39:34;101328.56;;;11.74;53.30
65997;BME280;52765;52.258;21.052;2023-06-04T04:42:01;101331.69;;;11.79;53.57
65997;BME280;52765;52.258;21.052;2023-06-04T04:44:27;101332.94;;;11.85;53.48
65997;BME280;52765;52.258;21.052;2023-06-04T04:46:52;101330.69;;;11.90;53.28
65997;BME280;52765;52.258;21.052;2023-06-04T04:49:18;101327.31;;;11.98;52.89
65997;BME280;52765;52.258;21.052;2023-06-04T04:51:43;101330.16;;;12.06;52.66
65997;BME280;52765;52.258;21.052;2023-06-04T04:54:09;101330.56;;;12.11;52.60
65997;BME280;52765;52.258;21.052;2023-06-04T04:56:34;101329.00;;;12.18;52.31
65997;BME280;52765;52.258;21.052;2023-06-04T04:59:01;101325.44;;;12.28;52.30
65997;BME280;52765;52.258;21.052;2023-06-04T05:01:26;101323.72;;;12.36;52.13
65997;BME280;52765;52.258;21.052;2023-06-04T05:03:52;101322.88;;;12.46;51.86
65997;BME280;52765;52.258;21.052;2023-06-04T05:06:18;101325.38;;;12.57;51.61
65997;BME280;52765;52.258;21.052;2023-06-04T05:08:43;101317.66;;;12.62;51.28
65997;BME280;52765;52.258;21.052;2023-06-04T05:11:09;101321.38;;;12.71;50.93
65997;BME280;52765;52.258;21.052;2023-06-04T05:13:35;101318.06;;;12.77;50.98
65997;BME280;52765;52.258;21.052;2023-06-04T05:16:02;101331.81;;;12.93;50.45
65997;BME280;52765;52.258;21.052;2023-06-04T05:18:32;101326.22;;;13.05;49.83
65997;BME280;52765;52.258;21.052;2023-06-04T05:20:58;101323.63;;;13.13;49.19
65997;BME280;52765;52.258;21.052;2023-06-04T05:23:26;101323.13;;;13.27;49.17
65997;BME280;52765;52.258;21.052;2023-06-04T05:25:52;101328.03;;;13.42;48.87
65997;BME280;52765;52.258;21.052;2023-06-04T05:28:18;101326.84;;;13.54;48.58
65997;BME280;52765;52.258;21.052;2023-06-04T05:30:43;101322.19;;;13.64;48.05
65997;BME280;52765;52.258;21.052;2023-06-04T05:33:09;101317.41;;;13.76;47.45
65997;BME280;52765;52.258;21.052;2023-06-04T05:35:47;101323.28;;;13.90;46.68
65997;BME280;52765;52.258;21.052;2023-06-04T05:38:14;101318.78;;;13.98;46.45
65997;BME280;52765;52.258;21.052;2023-06-04T05:40:44;101319.25;;;14.12;46.20
65997;BME280;52765;52.258;21.052;2023-06-04T05:43:10;101312.22;;;14.19;45.91
65997;BME280;52765;52.258;21.052;2023-06-04T05:45:36;101316.91;;;14.35;45.66
65997;BME280;52765;52.258;21.052;2023-06-04T05:48:02;101312.38;;;14.43;45.56
65997;BME280;52765;52.258;21.052;2023-06-04T05:50:29;101315.16;;;14.52;44.92
65997;BME280;52765;52.258;21.052;2023-06-04T05:52:55;101310.97;;;14.57;44.87
65997;BME280;52765;52.258;21.052;2023-06-04T05:55:21;101315.13;;;14.70;44.68
65997;BME280;52765;52.258;21.052;2023-06-04T05:57:48;101321.59;;;14.77;44.61
65997;BME280;52765;52.258;21.052;2023-06-04T06:00:14;101323.38;;;14.86;44.26
65997;BME280;52765;52.258;21.052;2023-06-04T06:02:40;101325.97;;;14.96;44.33
65997;BME280;52765;52.258;21.052;2023-06-04T06:05:08;101322.41;;;15.04;44.05
65997;BME280;52765;52.258;21.052;2023-06-04T06:07:34;101325.88;;;15.14;43.94
65997;BME280;52765;52.258;21.052;2023-06-04T06:10:00;101326.06;;;15.21;43.66
65997;BME280;52765;52.258;21.052;2023-06-04T06:12:26;101329.50;;;15.31;43.57
65997;BME280;52765;52.258;21.052;2023-06-04T06:14:52;101324.25;;;15.38;43.69
65997;BME280;52765;52.258;21.052;2023-06-04T06:17:17;101318.00;;;15.45;43.91
65997;BME280;52765;52.258;21.052;2023-06-04T06:19:43;101330.44;;;15.56;43.78
65997;BME280;52765;52.258;21.052;2023-06-04T06:22:08;101318.75;;;15.64;43.54
65997;BME280;52765;52.258;21.052;2023-06-04T06:24:34;101321.25;;;15.65;42.69
65997;BME280;52765;52.258;21.052;2023-06-04T06:26:59;101327.59;;;15.74;42.63
65997;BME280;52765;52.258;21.052;2023-06-04T06:29:25;101318.44;;;15.83;42.55
65997;BME280;52765;52.258;21.052;2023-06-04T06:31:51;101328.47;;;15.91;42.29
65997;BME280;52765;52.258;21.052;2023-06-04T06:34:19;101327.47;;;16.00;42.31
65997;BME280;52765;52.258;21.052;2023-06-04T06:36:45;101325.63;;;16.09;41.91
65997;BME280;52765;52.258;21.052;2023-06-04T06:39:10;101330.72;;;16.12;41.56
65997;BME280;52765;52.258;21.052;2023-06-04T06:41:37;101335.13;;;16.21;41.54
65997;BME280;52765;52.258;21.052;2023-06-04T06:44:04;101337.66;;;16.31;41.07
65997;BME280;52765;52.258;21.052;2023-06-04T06:46:29;101336.84;;;16.39;40.82
65997;BME280;52765;52.258;21.052;2023-06-04T06:48:55;101332.38;;;16.46;41.19
65997;BME280;52765;52.258;21.052;2023-06-04T06:51:20;101343.09;;;16.56;41.00
65997;BME280;52765;52.258;21.052;2023-06-04T06:53:46;101344.75;;;16.65;40.91
65997;BME280;52765;52.258;21.052;2023-06-04T06:56:13;101338.31;;;16.66;40.15
65997;BME280;52765;52.258;21.052;2023-06-04T06:58:38;101344.41;;;16.68;40.20
65997;BME280;52765;52.258;21.052;2023-06-04T07:01:04;101344.41;;;16.76;40.28
65997;BME280;52765;52.258;21.052;2023-06-04T07:03:31;101346.44;;;16.82;39.94
65997;BME280;52765;52.258;21.052;2023-06-04T07:05:57;101347.47;;;16.90;39.08
65997;BME280;52765;52.258;21.052;2023-06-04T07:08:22;101344.72;;;16.98;39.06
65997;BME280;52765;52.258;21.052;2023-06-04T07:10:49;101336.88;;;17.03;39.01
65997;BME280;52765;52.258;21.052;2023-06-04T07:13:15;101345.03;;;17.11;39.00
65997;BME280;52765;52.258;21.052;2023-06-04T07:15:40;101346.38;;;17.15;39.02
65997;BME280;52765;52.258;21.052;2023-06-04T07:18:06;101343.81;;;17.22;38.60
65997;BME280;52765;52.258;21.052;2023-06-04T07:20:31;101346.84;;;17.27;38.11
65997;BME280;52765;52.258;21.052;2023-06-04T07:22:57;101344.97;;;17.28;37.38
65997;BME280;52765;52.258;21.052;2023-06-04T07:25:22;101342.94;;;17.22;36.90
65997;BME280;52765;52.258;21.052;2023-06-04T07:27:49;101346.00;;;17.18;37.33
65997;BME280;52765;52.258;21.052;2023-06-04T07:30:18;101337.63;;;17.28;37.26
65997;BME280;52765;52.258;21.052;2023-06-04T07:32:50;101330.44;;;17.44;36.92
65997;BME280;52765;52.258;21.052;2023-06-04T07:35:15;101343.81;;;17.53;36.01
65997;BME280;52765;52.258;21.052;2023-06-04T07:37:41;101339.84;;;17.64;35.80
65997;BME280;52765;52.258;21.052;2023-06-04T07:40:10;101342.75;;;17.63;35.31
65997;BME280;52765;52.258;21.052;2023-06-04T07:42:36;101342.63;;;17.56;35.54
65997;BME280;52765;52.258;21.052;2023-06-04T07:45:02;101343.75;;;17.62;35.59
65997;BME280;52765;52.258;21.052;2023-06-04T07:47:28;101331.50;;;17.66;35.54
65997;BME280;52765;52.258;21.052;2023-06-04T07:49:54;101331.31;;;17.67;35.36
65997;BME280;52765;52.258;21.052;2023-06-04T07:52:19;101333.84;;;17.69;34.68
65997;BME280;52765;52.258;21.052;2023-06-04T07:54:45;101329.00;;;17.56;35.04
65997;BME280;52765;52.258;21.052;2023-06-04T07:57:12;101340.03;;;17.63;34.86
65997;BME280;52765;52.258;21.052;2023-06-04T07:59:37;101341.47;;;17.73;34.43
65997;BME280;52765;52.258;21.052;2023-06-04T08:02:03;101330.31;;;17.91;34.22
65997;BME280;52765;52.258;21.052;2023-06-04T08:04:29;101322.94;;;18.00;34.31
65997;BME280;52765;52.258;21.052;2023-06-04T08:06:56;101331.72;;;18.10;34.02
65997;BME280;52765;52.258;21.052;2023-06-04T08:09:21;101333.03;;;18.15;33.95
65997;BME280;52765;52.258;21.052;2023-06-04T08:11:47;101334.56;;;18.17;33.26
65997;BME280;52765;52.258;21.052;2023-06-04T08:14:12;101331.91;;;18.09;33.56
65997;BME280;52765;52.258;21.052;2023-06-04T08:16:39;101323.84;;;18.16;33.24
65997;BME280;52765;52.258;21.052;2023-06-04T08:19:06;101327.34;;;18.24;33.14
65997;BME280;52765;52.258;21.052;2023-06-04T08:21:32;101323.31;;;18.35;32.68
65997;BME280;52765;52.258;21.052;2023-06-04T08:23:58;101321.03;;;18.24;32.41
65997;BME280;52765;52.258;21.052;2023-06-04T08:26:24;101328.66;;;18.28;32.21
65997;BME280;52765;52.258;21.052;2023-06-04T08:28:52;101320.41;;;18.37;32.45
65997;BME280;52765;52.258;21.052;2023-06-04T08:31:25;101321.28;;;18.37;32.28
65997;BME280;52765;52.258;21.052;2023-06-04T08:33:51;101315.34;;;18.34;32.42
65997;BME280;52765;52.258;21.052;2023-06-04T08:36:17;101315.56;;;18.47;32.31
65997;BME280;52765;52.258;21.052;2023-06-04T08:38:42;101316.94;;;18.43;32.24
65997;BME280;52765;52.258;21.052;2023-06-04T08:41:34;101310.50;;;18.59;32.22
65997;BME280;52765;52.258;21.052;2023-06-04T08:44:05;101313.75;;;18.54;32.41
65997;BME280;52765;52.258;21.052;2023-06-04T08:46:37;101310.38;;;18.52;32.70
65997;BME280;52765;52.258;21.052;2023-06-04T08:49:05;101305.59;;;18.54;32.78
65997;BME280;52765;52.258;21.052;2023-06-04T08:51:35;101317.16;;;18.71;32.74
65997;BME280;52765;52.258;21.052;2023-06-04T08:54:04;101313.63;;;18.85;32.73
65997;BME280;52765;52.258;21.052;2023-06-04T08:56:30;101312.41;;;18.88;32.41
65997;BME280;52765;52.258;21.052;2023-06-04T08:59:00;101303.94;;;18.98;32.25
65997;BME280;52765;52.258;21.052;2023-06-04T09:01:27;101294.72;;;18.99;32.17
65997;BME280;52765;52.258;21.052;2023-06-04T09:03:52;101305.13;;;18.80;32.56
65997;BME280;52765;52.258;21.052;2023-06-04T09:06:18;101315.47;;;18.70;32.74
65997;BME280;52765;52.258;21.052;2023-06-04T09:08:44;101306.06;;;18.73;32.76
65997;BME280;52765;52.258;21.052;2023-06-04T09:11:13;101293.16;;;18.81;32.60
65997;BME280;52765;52.258;21.052;2023-06-04T09:13:42;101310.91;;;19.00;32.56
65997;BME280;52765;52.258;21.052;2023-06-04T09:16:08;101295.06;;;19.11;32.24
65997;BME280;52765;52.258;21.052;2023-06-04T09:18:34;101300.91;;;19.22;31.66
65997;BME280;52765;52.258;21.052;2023-06-04T09:21:06;101298.91;;;19.31;31.91
65997;BME280;52765;52.258;21.052;2023-06-04T09:23:43;101300.50;;;19.40;31.64
65997;BME280;52765;52.258;21.052;2023-06-04T09:26:10;101298.22;;;19.44;31.56
65997;BME280;52765;52.258;21.052;2023-06-04T09:28:40;101303.63;;;19.59;31.80
65997;BME280;52765;52.258;21.052;2023-06-04T09:31:08;101297.91;;;19.54;31.85
65997;BME280;52765;52.258;21.052;2023-06-04T09:33:48;101302.19;;;19.63;30.89
65997;BME280;52765;52.258;21.052;2023-06-04T09:36:14;101297.41;;;19.65;30.92
65997;BME280;52765;52.258;21.052;2023-06-04T09:38:40;101292.56;;;19.82;31.10
65997;BME280;52765;52.258;21.052;2023-06-04T09:41:17;101284.53;;;20.02;30.99
65997;BME280;52765;52.258;21.052;2023-06-04T09:43:45;101298.28;;;20.09;30.85
65997;BME280;52765;52.258;21.052;2023-06-04T09:46:12;101294.41;;;20.25;30.67
65997;BME280;52765;52.258;21.052;2023-06-04T09:48:39;101295.91;;;20.27;30.23
65997;BME280;52765;52.258;21.052;2023-06-04T09:51:08;101288.34;;;20.29;30.20
65997;BME280;52765;52.258;21.052;2023-06-04T09:53:34;101285.06;;;20.41;30.22
65997;BME280;52765;52.258;21.052;2023-06-04T09:56:03;101277.53;;;20.49;30.13
65997;BME280;52765;52.258;21.052;2023-06-04T09:58:30;101293.03;;;20.36;30.73
65997;BME280;52765;52.258;21.052;2023-06-04T10:00:57;101275.44;;;20.23;29.98
65997;BME280;52765;52.258;21.052;2023-06-04T10:03:30;101270.59;;;20.19;29.89
65997;BME280;52765;52.258;21.052;2023-06-04T10:05:58;101288.97;;;20.31;29.73
65997;BME280;52765;52.258;21.052;2023-06-04T10:08:26;101270.53;;;20.40;29.98
65997;BME280;52765;52.258;21.052;2023-06-04T10:10:55;101272.94;;;20.57;29.63
65997;BME280;52765;52.258;21.052;2023-06-04T10:13:25;101269.28;;;20.71;29.70
65997;BME280;52765;52.258;21.052;2023-06-04T10:15:52;101268.50;;;20.77;29.72
65997;BME280;52765;52.258;21.052;2023-06-04T10:18:18;101264.69;;;20.78;29.35
65997;BME280;52765;52.258;21.052;2023-06-04T10:20:44;101260.53;;;20.89;29.80
65997;BME280;52765;52.258;21.052;2023-06-04T10:23:10;101262.00;;;20.92;29.47
65997;BME280;52765;52.258;21.052;2023-06-04T10:25:37;101266.00;;;20.82;29.45
65997;BME280;52765;52.258;21.052;2023-06-04T10:28:03;101260.53;;;20.54;29.92
65997;BME280;52765;52.258;21.052;2023-06-04T10:30:31;101265.91;;;20.69;29.45
65997;BME280;52765;52.258;21.052;2023-06-04T10:32:58;101269.38;;;20.84;29.22
65997;BME280;52765;52.258;21.052;2023-06-04T10:35:34;101267.13;;;21.01;29.73
65997;BME280;52765;52.258;21.052;2023-06-04T10:38:10;101263.03;;;21.32;29.19
65997;BME280;52765;52.258;21.052;2023-06-04T10:40:37;101251.31;;;21.52;28.80
65997;BME280;52765;52.258;21.052;2023-06-04T10:43:10;101248.44;;;21.87;28.84
65997;BME280;52765;52.258;21.052;2023-06-04T10:45:36;101247.16;;;22.03;28.61
65997;BME280;52765;52.258;21.052;2023-06-04T10:48:08;101255.41;;;22.29;28.17
65997;BME280;52765;52.258;21.052;2023-06-04T10:50:35;101250.75;;;22.30;27.21
65997;BME280;52765;52.258;21.052;2023-06-04T10:53:12;101244.63;;;22.34;27.16
65997;BME280;52765;52.258;21.052;2023-06-04T10:55:44;101254.13;;;22.45;26.94
65997;BME280;52765;52.258;21.052;2023-06-04T10:58:10;101242.06;;;22.53;26.44
65997;BME280;52765;52.258;21.052;2023-06-04T11:00:45;101251.34;;;22.65;26.45
65997;BME280;52765;52.258;21.052;2023-06-04T11:03:12;101255.06;;;22.84;26.73
65997;BME280;52765;52.258;21.052;2023-06-04T11:08:08;101240.00;;;23.14;26.09
65997;BME280;52765;52.258;21.052;2023-06-04T11:10:36;101240.16;;;23.19;25.85
65997;BME280;52765;52.258;21.052;2023-06-04T11:13:03;101236.09;;;23.28;25.72
65997;BME280;52765;52.258;21.052;2023-06-04T11:15:43;101234.13;;;23.42;25.97
65997;BME280;52765;52.258;21.052;2023-06-04T11:18:14;101242.28;;;23.55;25.75
65997;BME280;52765;52.258;21.052;2023-06-04T11:20:40;101240.56;;;23.61;25.63
65997;BME280;52765;52.258;21.052;2023-06-04T11:23:05;101236.75;;;23.62;25.20
65997;BME280;52765;52.258;21.052;2023-06-04T11:25:31;101235.97;;;23.48;25.19
65997;BME280;52765;52.258;21.052;2023-06-04T11:27:58;101245.84;;;23.62;25.49
65997;BME280;52765;52.258;21.052;2023-06-04T11:30:25;101229.41;;;23.81;25.22
65997;BME280;52765;52.258;21.052;2023-06-04T11:33:00;101225.91;;;23.99;24.80
65997;BME280;52765;52.258;21.052;2023-06-04T11:35:26;101231.91;;;24.14;25.15
65997;BME280;52765;52.258;21.052;2023-06-04T11:37:56;101226.44;;;24.33;24.68
65997;BME280;52765;52.258;21.052;2023-06-04T11:40:24;101233.44;;;24.54;25.00
65997;BME280;52765;52.258;21.052;2023-06-04T11:42:52;101229.66;;;24.55;24.22
65997;BME280;52765;52.258;21.052;2023-06-04T11:45:20;101229.56;;;24.62;24.00
65997;BME280;52765;52.258;21.052;2023-06-04T11:47:51;101232.31;;;24.80;23.80
65997;BME280;52765;52.258;21.052;2023-06-04T11:50:17;101224.25;;;24.97;23.86
65997;BME280;52765;52.258;21.052;2023-06-04T11:52:42;101224.84;;;25.18;23.53
65997;BME280;52765;52.258;21.052;2023-06-04T11:55:12;101233.75;;;25.20;23.11
65997;BME280;52765;52.258;21.052;2023-06-04T11:57:39;101230.41;;;25.29;23.16
65997;BME280;52765;52.258;21.052;2023-06-04T12:00:07;101223.06;;;25.42;22.84
65997;BME280;52765;52.258;21.052;2023-06-04T12:02:39;101228.13;;;25.57;22.70
65997;BME280;52765;52.258;21.052;2023-06-04T12:05:14;101225.63;;;25.67;22.27
65997;BME280;52765;52.258;21.052;2023-06-04T12:07:40;101219.91;;;25.80;22.27
65997;BME280;52765;52.258;21.052;2023-06-04T12:10:07;101223.44;;;25.99;22.09
65997;BME280;52765;52.258;21.052;2023-06-04T12:12:34;101226.31;;;26.04;21.52
65997;BME280;52765;52.258;21.052;2023-06-04T12:15:00;101230.53;;;26.07;21.44
65997;BME280;52765;52.258;21.052;2023-06-04T12:17:26;101232.47;;;26.18;20.76
65997;BME280;52765;52.258;21.052;2023-06-04T12:19:53;101220.94;;;26.33;21.11
65997;BME280;52765;52.258;21.052;2023-06-04T12:22:20;101224.28;;;26.47;20.53
65997;BME280;52765;52.258;21.052;2023-06-04T12:24:48;101223.56;;;26.64;20.40
65997;BME280;52765;52.258;21.052;2023-06-04T12:27:14;101219.22;;;26.80;20.51
65997;BME280;52765;52.258;21.052;2023-06-04T12:29:40;101215.66;;;26.96;20.64
65997;BME280;52765;52.258;21.052;2023-06-04T12:32:07;101221.28;;;27.13;20.34
65997;BME280;52765;52.258;21.052;2023-06-04T12:34:36;101216.91;;;27.29;20.63
65997;BME280;52765;52.258;21.052;2023-06-04T12:37:03;101216.00;;;27.40;20.04
65997;BME280;52765;52.258;21.052;2023-06-04T12:39:30;101220.34;;;27.36;19.94
65997;BME280;52765;52.258;21.052;2023-06-04T12:41:55;101223.72;;;27.38;19.91
65997;BME280;52765;52.258;21.052;2023-06-04T12:44:21;101212.59;;;27.21;19.71